Time;durP1;ratioP1;P1;durP2;ratioP2;P2;SDS_P1;SDS_P2;PMS_P1;PMS_P2;Temp;Humidity;BMP_temperature;BMP_pressure;BME280_temperature;BME280_humidity;BME280_pressure;Samples;Min_cycle;Max_cycle;Signal;HPM_P1;HPM_P2
2022/09/14 00:00:46;;;;;;;4.10;3.63;;;;;;;15.97;100.00;-3100.25;5051432;28;20201;-61
2022/09/14 00:03:14;;;;;;;3.30;3.20;;;;;;;16.02;100.00;-3100.22;5051501;28;20228;-61
2022/09/14 00:05:42;;;;;;;3.27;3.17;;;;;;;16.06;100.00;-2778.16;5051214;28;20194;-62
2022/09/14 00:08:09;;;;;;;4.23;3.90;;;;;;;16.15;100.00;-2778.06;5051212;28;20196;-60
2022/09/14 00:10:39;;;;;;;4.83;4.50;;;;;;;16.15;100.00;-1489.34;5051219;28;20228;-61
2022/09/14 00:13:07;;;;;;;4.23;4.03;;;;;;;16.31;100.00;445.72;5051194;28;20186;-61
2022/09/14 00:15:36;;;;;;;5.30;2.93;;;;;;;16.37;100.00;1736.53;5052560;28;20182;-62
2022/09/14 00:18:04;;;;;;;4.13;3.87;;;;;;;16.42;100.00;3350.88;5055082;28;20232;-61
2022/09/14 00:20:31;;;;;;;3.60;3.17;;;;;;;16.48;100.00;5612.50;5055111;28;20181;-61
2022/09/14 00:23:00;;;;;;;3.80;3.70;;;;;;;16.52;100.00;7875.91;5055253;28;20722;-62
2022/09/14 00:25:27;;;;;;;4.07;3.70;;;;;;;16.59;100.00;8847.53;5055212;28;20320;-61
2022/09/14 00:27:55;;;;;;;4.23;3.60;;;;;;;16.55;100.00;10464.50;5055053;28;20193;-60
2022/09/14 00:30:23;;;;;;;4.03;3.70;;;;;;;16.46;100.00;10786.09;5087075;28;20190;-61
2022/09/14 00:32:50;;;;;;;3.90;3.60;;;;;;;16.34;100.00;11430.50;5054962;28;20198;-61
2022/09/14 00:35:18;;;;;;;3.73;3.57;;;;;;;16.29;100.00;9811.75;5055126;28;20567;-61
2022/09/14 00:37:45;;;;;;;3.70;3.50;;;;;;;16.27;100.00;8194.63;5054831;28;20271;-62
2022/09/14 00:40:13;;;;;;;3.63;3.43;;;;;;;16.34;100.00;7226.19;5054814;28;20203;-61
2022/09/14 00:42:40;;;;;;;3.97;3.67;;;;;;;16.23;100.00;7547.44;5054666;28;20266;-62
2022/09/14 00:45:15;;;;;;;4.93;3.50;;;;;;;16.31;100.00;9812.28;5069979;28;20200;-60
2022/09/14 00:47:47;;;;;;;3.87;3.63;;;;;;;16.07;100.00;9807.06;5054601;28;20189;-61
2022/09/14 00:50:14;;;;;;;4.03;3.73;;;;;;;16.27;100.00;8841.19;5054615;28;20220;-61
2022/09/14 00:52:45;;;;;;;4.37;3.97;;;;;;;15.85;100.00;5280.81;5054699;28;20658;-61
2022/09/14 00:55:16;;;;;;;4.07;3.73;;;;;;;15.82;100.00;3667.06;5054522;28;20193;-61
2022/09/14 00:57:45;;;;;;;7.00;5.43;;;;;;;15.88;100.00;2055.03;5054634;28;20288;-61
2022/09/14 01:00:16;;;;;;;7.63;6.90;;;;;;;15.88;100.00;1410.19;5054535;28;20193;-61
2022/09/14 01:02:43;;;;;;;5.93;5.50;;;;;;;15.97;100.00;766.03;5054591;28;20335;-61
2022/09/14 01:05:11;;;;;;;6.37;5.97;;;;;;;15.94;100.00;121.19;5054224;28;20186;-61
2022/09/14 01:08:08;;;;;;;6.00;5.70;;;;;;;15.94;100.00;443.50;5054528;28;20559;-61
2022/09/14 01:10:58;;;;;;;6.50;6.17;;;;;;;15.36;100.00;117.94;5086620;28;20192;-61
2022/09/14 01:13:34;;;;;;;5.67;5.37;;;;;;;15.65;100.00;-202.59;5054535;28;20673;-60
2022/09/14 01:16:11;;;;;;;5.97;5.57;;;;;;;15.35;100.00;-2135.31;5054086;28;20276;-61
2022/09/14 01:18:43;;;;;;;6.60;6.30;;;;;;;15.46;100.00;-2456.91;5054343;28;20659;-61
2022/09/14 01:21:12;;;;;;;8.07;6.67;;;;;;;15.42;100.00;-2778.72;5053856;28;20200;-64
2022/09/14 01:23:49;;;;;;;8.17;7.33;;;;;;;15.43;100.00;-3100.44;5054253;28;20237;-62
2022/09/14 01:26:46;;;;;;;8.67;8.07;;;;;;;15.47;100.00;-4065.53;5053207;28;20195;-60
2022/09/14 01:29:17;;;;;;;16.73;12.40;;;;;;;15.48;100.00;-4065.53;5053922;28;20273;-61
2022/09/14 01:31:51;;;;;;;18.40;13.17;;;;;;;15.52;100.00;-4065.59;5053771;28;20636;-60
2022/09/14 01:34:27;;;;;;;18.80;15.70;;;;;;;15.60;100.00;-4065.69;5054081;28;20581;-61
2022/09/14 01:36:59;;;;;;;17.50;15.63;;;;;;;15.49;100.00;-3100.44;5053978;28;20605;-60
2022/09/14 01:39:29;;;;;;;20.73;16.63;;;;;;;15.38;100.00;-3422.16;5053903;28;20195;-60
2022/09/14 01:41:57;;;;;;;21.20;16.07;;;;;;;15.60;100.00;-3100.38;5053890;28;20205;-60
2022/09/14 01:44:31;;;;;;;20.40;15.80;;;;;;;15.62;100.00;-2456.69;5053643;28;20185;-61
2022/09/14 01:47:05;;;;;;;22.27;15.50;;;;;;;15.65;100.00;-2456.66;5053661;28;20201;-61
2022/09/14 01:49:37;;;;;;;21.87;16.30;;;;;;;15.70;100.00;-1812.66;5053858;28;20596;-61
2022/09/14 01:52:09;;;;;;;17.13;15.33;;;;;;;15.69;100.00;-1168.66;5052552;28;20178;-61
2022/09/14 01:54:42;;;;;;;20.47;15.87;;;;;;;15.77;100.00;-201.97;5053529;28;20189;-61
2022/09/14 01:57:18;;;;;;;23.43;15.10;;;;;;;15.65;100.00;441.69;5053472;28;20196;-61
2022/09/14 01:59:48;;;;;;;17.17;14.50;;;;;;;15.78;100.00;3021.53;5053506;28;20203;-61
2022/09/14 02:02:20;;;;;;;15.60;13.67;;;;;;;15.77;100.00;3666.50;5053733;28;20576;-61
2022/09/14 02:04:52;;;;;;;17.10;13.17;;;;;;;15.64;100.00;4310.06;5053532;28;20583;-61
2022/09/14 02:07:20;;;;;;;15.13;13.60;;;;;;;15.54;100.00;5276.53;5053265;28;20192;-61
2022/09/14 02:09:48;;;;;;;14.93;13.53;;;;;;;15.55;100.00;6244.56;5053197;28;20387;-61
2022/09/14 02:12:15;;;;;;;18.63;15.30;;;;;;;15.49;100.00;7534.66;5053094;28;20207;-61
2022/09/14 02:14:43;;;;;;;18.47;16.63;;;;;;;15.43;100.00;7856.38;5053055;28;20243;-61
2022/09/14 02:17:11;;;;;;;18.67;16.70;;;;;;;15.41;100.00;7533.16;5052908;28;20245;-60
2022/09/14 02:19:44;;;;;;;20.17;16.63;;;;;;;15.41;100.00;7855.91;5053367;28;20192;-61
2022/09/14 02:22:11;;;;;;;21.37;18.10;;;;;;;15.43;100.00;9147.72;5052760;28;20691;-61
2022/09/14 02:24:39;;;;;;;19.70;17.80;;;;;;;15.01;100.00;9784.78;5052751;28;20195;-60
2022/09/14 02:27:07;;;;;;;21.03;18.83;;;;;;;15.09;100.00;11077.97;5052934;28;20273;-60
2022/09/14 02:29:35;;;;;;;19.30;17.43;;;;;;;15.06;100.00;8817.72;5053002;28;20239;-61
2022/09/14 02:32:15;;;;;;;21.70;18.63;;;;;;;14.90;100.00;7201.88;5053151;28;20573;-61
2022/09/14 02:34:52;;;;;;;20.50;18.30;;;;;;;14.93;100.00;6879.84;5052812;28;20185;-61
2022/09/14 02:37:23;;;;;;;22.13;18.33;;;;;;;15.01;100.00;6236.25;5051435;28;20196;-61
2022/09/14 02:39:59;;;;;;;20.97;18.27;;;;;;;14.76;100.00;4621.34;5050951;28;20185;-61
2022/09/14 02:42:36;;;;;;;21.93;19.83;;;;;;;14.67;100.00;2044.56;5052685;28;20296;-62
2022/09/14 02:45:14;;;;;;;25.53;21.70;;;;;;;14.75;100.00;1723.41;5052447;28;20195;-60
2022/09/14 02:47:54;;;;;;;27.80;20.23;;;;;;;14.78;100.00;436.47;5052411;28;20185;-60
2022/09/14 02:50:26;;;;;;;22.70;20.30;;;;;;;14.62;100.00;-529.31;5052456;28;20189;-60
2022/09/14 02:53:01;;;;;;;30.13;21.57;;;;;;;14.58;100.00;-1815.38;5052953;28;20185;-62
2022/09/14 02:55:33;;;;;;;33.67;22.57;;;;;;;14.55;100.00;-1494.03;5053303;28;20188;-61
2022/09/14 02:58:06;;;;;;;29.53;21.97;;;;;;;14.48;100.00;-2779.53;5052945;28;20193;-62
2022/09/14 03:00:36;;;;;;;28.67;23.70;;;;;;;14.42;100.00;-3100.81;5052806;28;20200;-62
2022/09/14 03:03:06;;;;;;;34.60;25.30;;;;;;;14.37;100.00;-3743.09;5052616;28;20201;-62
2022/09/14 03:05:34;;;;;;;41.77;26.73;;;;;;;14.34;100.00;-4385.22;5052447;28;20190;-61
2022/09/14 03:08:02;;;;;;;40.23;27.30;;;;;;;14.09;100.00;-5026.53;5052550;28;20199;-62
2022/09/14 03:10:30;;;;;;;37.27;25.33;;;;;;;14.20;100.00;-5347.72;5052937;28;20246;-62
2022/09/14 03:12:56;;;;;;;42.70;25.67;;;;;;;14.14;100.00;-5668.34;5052182;28;20186;-62
2022/09/14 03:15:23;;;;;;;38.17;27.43;;;;;;;13.95;100.00;-6629.56;5052371;28;20225;-62
2022/09/14 03:17:51;;;;;;;43.50;28.40;;;;;;;13.93;100.00;-7591.16;5052830;28;20233;-61
2022/09/14 03:20:23;;;;;;;44.40;29.90;;;;;;;13.83;100.00;-9512.56;5052020;28;20639;-60
2022/09/14 03:22:50;;;;;;;54.93;32.17;;;;;;;14.03;100.00;-10475.56;5051660;28;20216;-60
2022/09/14 03:25:18;;;;;;;46.43;33.17;;;;;;;14.08;100.00;-10796.41;5051832;28;20192;-61
2022/09/14 03:27:48;;;;;;;63.73;36.83;;;;;;;14.15;100.00;-10797.34;5051741;28;20189;-62
2022/09/14 03:30:15;;;;;;;65.67;38.40;;;;;;;14.27;100.00;-8875.97;5051774;28;20185;-60
2022/09/14 03:32:42;;;;;;;57.20;37.50;;;;;;;14.24;100.00;-8875.66;5051881;28;20182;-61
2022/09/14 03:35:09;;;;;;;51.87;37.30;;;;;;;14.12;100.00;-7592.47;5051621;28;20185;-62
2022/09/14 03:37:39;;;;;;;52.33;37.67;;;;;;;14.26;100.00;-6951.97;5051655;28;20276;-61
2022/09/14 03:40:08;;;;;;;53.67;36.97;;;;;;;14.37;100.00;-5990.09;5051556;28;20259;-60
2022/09/14 03:42:35;;;;;;;54.97;37.03;;;;;;;14.30;100.00;-5668.94;5051359;28;20216;-61
2022/09/14 03:45:02;;;;;;;58.47;37.20;;;;;;;14.40;100.00;-5348.34;5051722;28;20197;-61
2022/09/14 03:47:30;;;;;;;53.03;35.77;;;;;;;14.40;100.00;-4706.38;5051742;28;20661;-61
2022/09/14 03:49:57;;;;;;;44.73;30.67;;;;;;;14.25;100.00;-3100.88;5051069;28;20559;-61
2022/09/14 03:52:23;;;;;;;53.40;31.70;;;;;;;14.39;100.00;-3100.81;5051426;28;20181;-62
2022/09/14 03:54:52;;;;;;;40.10;28.20;;;;;;;14.39;100.00;-2779.63;5051375;28;20192;-61
2022/09/14 03:57:25;;;;;;;41.10;25.73;;;;;;;14.34;100.00;112.34;5051562;28;20193;-61
2022/09/14 03:59:52;;;;;;;37.70;25.93;;;;;;;14.34;100.00;3006.84;5051359;28;20189;-61
2022/09/14 04:02:19;;;;;;;37.93;24.90;;;;;;;14.42;100.00;2364.16;5050353;28;20236;-60
2022/09/14 04:04:47;;;;;;;39.30;24.17;;;;;;;14.53;100.00;4618.50;5051306;28;20331;-61
2022/09/14 04:07:14;;;;;;;41.40;23.43;;;;;;;14.41;100.00;4616.97;5051271;28;20498;-60
2022/09/14 04:09:41;;;;;;;33.47;20.70;;;;;;;14.30;100.00;5259.34;5051185;28;20177;-61
2022/09/14 04:12:10;;;;;;;35.67;20.57;;;;;;;14.32;100.00;3972.00;5051236;28;20185;-60
2022/09/14 04:14:37;;;;;;;33.53;20.57;;;;;;;14.36;100.00;3650.63;5051267;28;20186;-62
2022/09/14 04:17:04;;;;;;;41.90;19.40;;;;;;;14.36;100.00;3972.53;5051242;28;20629;-61
2022/09/14 04:19:33;;;;;;;29.10;19.13;;;;;;;14.46;100.00;4939.53;5051496;28;20650;-61
2022/09/14 04:22:00;;;;;;;26.03;19.30;;;;;;;14.70;100.00;4298.56;5051349;28;20189;-61
2022/09/14 04:24:27;;;;;;;20.57;18.23;;;;;;;15.03;100.00;7526.53;5051117;28;20199;-61
2022/09/14 04:26:54;;;;;;;27.00;16.90;;;;;;;15.52;100.00;12704.25;5051171;28;20192;-61
2022/09/14 04:29:22;;;;;;;16.30;13.83;;;;;;;16.23;100.00;32852.03;5051397;28;20660;-61
2022/09/14 04:31:49;;;;;;;32.27;16.40;;;;;;;16.73;100.00;77499.66;5051391;28;20280;-62
2022/09/14 04:34:16;;;;;;;22.10;13.87;;;;;;;17.11;100.00;150337.13;5051153;28;20196;-61
2022/09/14 04:36:43;;;;;;;10.17;9.47;;;;;;;17.23;100.00;150367.63;5050930;28;20190;-62
2022/09/14 04:39:12;;;;;;;14.13;8.80;;;;;;;17.23;100.00;150367.63;5051272;28;20185;-61
2022/09/14 04:41:39;;;;;;;13.07;7.13;;;;;;;17.46;100.00;150426.09;5051184;28;20576;-61
2022/09/14 04:44:06;;;;;;;12.30;6.37;;;;;;;18.23;100.00;150620.63;5051293;28;20205;-62
2022/09/14 04:46:35;;;;;;;9.00;6.67;;;;;;;18.92;100.00;150793.66;5050844;28;20186;-61
2022/09/14 04:49:02;;;;;;;7.00;6.00;;;;;;;19.39;100.00;150910.72;5051204;28;20629;-62
2022/09/14 04:51:32;;;;;;;5.73;5.53;;;;;;;19.79;100.00;151012.53;5051161;28;20196;-61
2022/09/14 04:54:00;;;;;;;20.23;7.00;;;;;;;20.23;100.00;151122.03;5049757;28;20675;-61
2022/09/14 04:56:28;;;;;;;11.80;6.17;;;;;;;20.91;100.00;151294.03;5051378;28;20629;-61
2022/09/14 04:58:58;;;;;;;11.30;6.37;;;;;;;21.17;100.00;151359.06;5050773;28;20188;-61
2022/09/14 05:01:27;;;;;;;13.87;7.30;;;;;;;22.04;100.00;151578.28;5052312;28;20203;-61
2022/09/14 05:03:56;;;;;;;11.40;7.43;;;;;;;21.85;100.00;151531.09;5054647;28;20213;-62
2022/09/14 05:06:24;;;;;;;14.73;7.30;;;;;;;22.04;100.00;151579.56;5054258;28;20185;-62
2022/09/14 05:08:52;;;;;;;15.70;8.32;;;;;;;21.97;100.00;151561.75;5054704;28;20185;-62
2022/09/14 05:11:25;;;;;;;13.57;8.00;;;;;;;21.87;100.00;151536.19;5054093;28;20575;-62
2022/09/14 05:13:52;;;;;;;17.25;9.23;;;;;;;21.34;100.00;151403.63;5054643;28;20555;-61
2022/09/14 05:16:22;;;;;;;13.05;9.02;;;;;;;21.40;100.00;151417.66;5054214;28;20196;-61
2022/09/14 05:18:50;;;;;;;12.30;8.53;;;;;;;21.33;100.00;151401.09;5054022;28;20193;-62
2022/09/14 05:21:20;;;;;;;9.43;8.43;;;;;;;22.17;100.00;151612.72;5054302;28;20712;-60
2022/09/14 05:23:47;;;;;;;13.90;8.60;;;;;;;22.66;100.00;151735.16;5054148;28;20227;-60
2022/09/14 05:26:15;;;;;;;20.02;9.35;;;;;;;23.29;100.00;151893.41;5054005;28;20199;-61
2022/09/14 05:28:42;;;;;;;12.73;8.07;;;;;;;23.95;100.00;152061.91;5053912;28;20190;-61
2022/09/14 05:31:11;;;;;;;14.85;9.18;;;;;;;23.95;100.00;152061.91;5053854;28;20193;-62
2022/09/14 05:33:39;;;;;;;10.10;7.38;;;;;;;23.92;100.00;152054.25;5054052;28;20563;-63
2022/09/14 05:36:07;;;;;;;9.23;7.35;;;;;;;23.47;100.00;151940.63;5054054;28;20189;-62
2022/09/14 05:38:38;;;;;;;10.48;6.43;;;;;;;22.82;100.00;151774.75;5053565;28;20189;-62
2022/09/14 05:41:06;;;;;;;7.13;6.35;;;;;;;22.54;100.00;151704.53;5053624;28;20640;-62
2022/09/14 05:43:33;;;;;;;9.57;6.78;;;;;;;22.31;100.00;151647.16;5053378;28;20205;-62
2022/09/14 05:46:02;;;;;;;6.50;6.00;;;;;;;22.86;100.00;151784.94;5053638;28;20556;-63
2022/09/14 05:48:31;;;;;;;6.75;5.88;;;;;;;23.51;100.00;151949.56;5053330;28;20189;-64
2022/09/14 05:50:59;;;;;;;8.05;5.72;;;;;;;24.29;100.00;152146.19;5053662;28;20692;-63
2022/09/14 05:53:27;;;;;;;6.25;5.70;;;;;;;24.67;100.00;152243.25;5053444;28;20208;-63
2022/09/14 05:56:07;;;;;;;6.38;5.80;;;;;;;24.83;99.25;152284.13;5053370;28;20191;-63
2022/09/14 05:58:36;;;;;;;8.77;6.32;;;;;;;24.82;99.77;152280.31;5053235;28;20606;-62
2022/09/14 06:01:14;;;;;;;7.15;6.43;;;;;;;24.22;100.00;152128.34;5053296;28;20201;-63
2022/09/14 06:03:41;;;;;;;8.32;7.53;;;;;;;23.99;100.00;152072.13;5053513;28;20695;-62
2022/09/14 06:06:10;;;;;;;10.88;7.03;;;;;;;24.10;100.00;152098.94;5053357;28;20194;-62
2022/09/14 06:08:37;;;;;;;9.80;8.95;;;;;;;24.12;100.00;152105.31;5052963;28;20379;-62
2022/09/14 06:11:07;;;;;;;8.68;7.95;;;;;;;24.12;100.00;152105.31;5053063;28;20239;-62
2022/09/14 06:13:35;;;;;;;9.02;8.15;;;;;;;24.05;100.00;152086.16;5052476;28;20181;-62
2022/09/14 06:16:03;;;;;;;16.45;8.40;;;;;;;24.54;100.00;152210.03;5053174;28;20185;-61
2022/09/14 06:18:32;;;;;;;8.57;7.30;;;;;;;24.82;100.00;152281.59;5052754;28;20700;-62
2022/09/14 06:20:59;;;;;;;10.18;6.63;;;;;;;25.10;98.80;152350.59;5053494;28;20189;-62
2022/09/14 06:23:27;;;;;;;18.52;5.75;;;;;;;25.63;96.34;152484.84;5054113;28;20669;-62
2022/09/14 06:25:54;;;;;;;14.70;4.82;;;;;;;25.81;92.16;152532.09;5067040;28;20212;-62
2022/09/14 06:28:25;;;;;;;8.25;4.07;;;;;;;26.03;89.35;152585.78;5073474;28;20185;-62
2022/09/14 06:30:53;;;;;;;4.22;3.88;;;;;;;26.12;87.19;152610.09;5072823;28;20199;-62
2022/09/14 06:33:20;;;;;;;9.57;3.42;;;;;;;26.14;86.63;152613.94;5073060;28;20195;-61
2022/09/14 06:35:55;;;;;;;6.68;3.53;;;;;;;26.29;84.60;152652.31;5089219;28;20203;-62
2022/09/14 06:38:22;;;;;;;9.30;2.97;;;;;;;26.92;82.67;152810.91;5072308;28;20187;-61
2022/09/14 06:40:54;;;;;;;8.18;3.25;;;;;;;27.76;74.92;153023.31;5053054;28;20208;-63
2022/09/14 06:43:21;;;;;;;2.90;2.70;;;;;;;28.30;69.75;153160.34;5052271;28;20205;-62
2022/09/14 06:46:09;;;;;;;6.53;2.80;;;;;;;28.90;63.70;153312.72;5052593;28;20185;-62
2022/09/14 06:48:38;;;;;;;6.95;2.17;;;;;;;28.92;61.40;153319.16;5069585;28;20725;-63
2022/09/14 06:51:14;;;;;;;5.80;2.30;;;;;;;29.15;59.57;153376.81;5072521;28;20181;-62
2022/09/14 06:53:41;;;;;;;8.98;2.30;;;;;;;29.45;58.45;153452.44;5072775;28;20258;-62
2022/09/14 06:56:08;;;;;;;3.03;2.20;;;;;;;29.62;57.57;153494.72;5054091;28;20205;-62
2022/09/14 06:58:35;;;;;;;4.10;1.90;;;;;;;29.83;57.35;153548.50;5051513;28;20196;-62
2022/09/14 07:01:04;;;;;;;2.05;1.85;;;;;;;29.33;57.44;153422.94;5052570;28;20210;-63
2022/09/14 07:03:31;;;;;;;2.60;2.22;;;;;;;29.07;61.17;153355.03;5064554;28;20303;-62
2022/09/14 07:06:05;;;;;;;2.35;1.85;;;;;;;28.83;59.32;153294.81;5072010;28;20184;-62
2022/09/14 07:08:32;;;;;;;4.28;2.55;;;;;;;29.17;60.70;153381.91;5072103;28;20249;-62
2022/09/14 07:11:00;;;;;;;3.15;2.72;;;;;;;28.89;64.61;153311.50;5072024;28;20208;-62
2022/09/14 07:13:28;;;;;;;3.40;2.10;;;;;;;28.57;61.70;153230.75;5071986;28;20187;-62
2022/09/14 07:15:56;;;;;;;3.45;1.90;;;;;;;28.07;62.94;153102.69;5072221;28;20184;-61
2022/09/14 07:18:31;;;;;;;1.80;1.70;;;;;;;28.07;63.42;153102.69;5069813;28;20221;-62
2022/09/14 07:21:06;;;;;;;2.53;2.42;;;;;;;27.90;66.59;153059.16;5069762;28;20203;-66
2022/09/14 07:23:33;;;;;;;3.95;2.30;;;;;;;27.67;66.76;153002.84;5072744;28;20571;-66
2022/09/14 07:26:05;;;;;;;2.17;2.08;;;;;;;27.84;65.66;153043.84;5071810;28;20196;-65
2022/09/14 07:28:32;;;;;;;3.63;1.85;;;;;;;27.76;64.64;153023.31;5072316;28;20627;-65
2022/09/14 07:30:59;;;;;;;2.60;1.80;;;;;;;27.73;67.18;153015.66;5072582;28;20191;-66
2022/09/14 07:33:28;;;;;;;2.35;1.50;;;;;;;27.42;65.68;152937.53;5072679;28;20242;-67
2022/09/14 07:36:04;;;;;;;2.40;1.55;;;;;;;27.26;66.92;152897.91;5072665;28;20195;-65
2022/09/14 07:38:31;;;;;;;1.50;1.50;;;;;;;27.58;66.32;152979.81;5072489;28;20700;-65
2022/09/14 07:41:01;;;;;;;2.80;1.40;;;;;;;27.51;66.95;152961.91;5072122;28;20189;-65
2022/09/14 07:43:28;;;;;;;1.40;1.40;;;;;;;27.58;65.26;152978.56;5072453;28;20244;-66
2022/09/14 07:45:55;;;;;;;3.25;1.70;;;;;;;27.60;66.38;152984.97;5073497;28;20192;-67
2022/09/14 07:48:23;;;;;;;1.60;1.50;;;;;;;27.88;65.17;153054.06;5073731;28;20246;-66
2022/09/14 07:51:01;;;;;;;5.47;1.60;;;;;;;27.81;63.50;153037.41;5073431;28;20200;-66
2022/09/14 07:53:28;;;;;;;3.45;1.80;;;;;;;27.47;65.69;152951.69;5073190;28;20187;-65
2022/09/14 07:55:55;;;;;;;1.77;1.67;;;;;;;27.58;65.32;152978.56;5072275;28;20250;-65
2022/09/14 07:58:23;;;;;;;4.10;1.75;;;;;;;27.49;65.37;152955.53;5072066;28;20223;-66
2022/09/14 08:00:49;;;;;;;1.88;1.58;;;;;;;27.59;67.03;152982.38;5072395;28;20200;-65
2022/09/14 08:03:17;;;;;;;6.50;1.80;;;;;;;27.68;66.46;153005.44;5072166;28;20181;-65
2022/09/14 08:05:45;;;;;;;2.67;2.47;;;;;;;27.76;66.17;153023.31;5072321;28;20631;-66
2022/09/14 08:08:13;;;;;;;1.45;1.45;;;;;;;27.96;63.05;153074.56;5072382;28;20195;-66
2022/09/14 08:10:40;;;;;;;2.35;2.13;;;;;;;27.93;63.39;153066.84;5071922;28;20280;-66
2022/09/14 08:13:07;;;;;;;2.05;1.67;;;;;;;28.08;62.91;153106.53;5071725;28;20185;-66
2022/09/14 08:15:34;;;;;;;2.83;2.17;;;;;;;28.08;63.92;153105.25;5071862;28;20188;-65
2022/09/14 08:18:01;;;;;;;3.45;1.77;;;;;;;28.25;61.25;153148.84;5071569;28;20225;-66
2022/09/14 08:20:29;;;;;;;1.73;1.60;;;;;;;28.36;60.15;153176.97;5072692;28;20185;-64
2022/09/14 08:22:56;;;;;;;3.70;1.70;;;;;;;28.49;58.35;153210.25;5071862;28;20223;-64
2022/09/14 08:25:24;;;;;;;1.80;1.70;;;;;;;28.40;58.19;153187.22;5072299;28;20201;-62
2022/09/14 08:27:51;;;;;;;6.50;2.75;;;;;;;28.38;60.03;153180.84;5072450;28;20271;-62
2022/09/14 08:30:18;;;;;;;2.72;2.63;;;;;;;28.30;61.86;153161.66;5072204;28;20275;-63
2022/09/14 08:32:46;;;;;;;3.20;2.42;;;;;;;27.61;63.22;152986.25;5071496;28;20658;-66
2022/09/14 08:35:13;;;;;;;2.88;2.60;;;;;;;27.73;64.94;153015.66;5071632;28;20276;-65
2022/09/14 08:37:40;;;;;;;2.53;2.33;;;;;;;28.20;63.36;153134.75;5074798;28;20181;-65
2022/09/14 08:40:11;;;;;;;8.65;3.53;;;;;;;28.33;61.73;153169.31;5076013;28;20189;-65
2022/09/14 08:42:40;;;;;;;4.10;3.10;;;;;;;28.26;61.71;153151.41;5075472;28;20188;-64
2022/09/14 08:45:08;;;;;;;4.65;2.88;;;;;;;28.45;60.22;153200.03;5074612;28;20209;-65
2022/09/14 08:47:38;;;;;;;3.40;3.10;;;;;;;28.37;60.46;153178.25;5075764;28;20200;-66
2022/09/14 08:50:13;;;;;;;3.30;3.10;;;;;;;28.41;58.51;153189.78;5076100;28;20191;-66
2022/09/14 08:52:44;;;;;;;4.22;2.88;;;;;;;28.50;59.08;153211.56;5075960;28;20508;-64
2022/09/14 08:55:24;;;;;;;3.33;2.90;;;;;;;28.68;60.12;153257.66;5075401;28;20187;-66
2022/09/14 08:58:00;;;;;;;2.92;2.72;;;;;;;28.63;57.06;153243.56;5076357;28;20193;-64
2022/09/14 09:00:41;;;;;;;3.55;2.78;;;;;;;28.84;58.14;153297.38;5057898;28;20209;-67
2022/09/14 09:03:36;;;;;;;2.10;2.00;;;;;;;29.02;53.73;153344.78;5055910;28;20193;-69
2022/09/14 09:06:12;;;;;;;3.10;2.40;;;;;;;29.10;55.68;153364.00;5055053;28;20181;-66
2022/09/14 09:08:49;;;;;;;2.10;2.00;;;;;;;28.73;54.99;153269.25;5055258;28;20185;-65
2022/09/14 09:11:20;;;;;;;2.50;2.20;;;;;;;28.27;56.37;153152.63;5068829;28;20192;-65
2022/09/14 09:13:50;;;;;;;3.85;2.75;;;;;;;28.48;56.14;153206.41;5067574;28;20655;-65
2022/09/14 09:16:22;;;;;;;3.03;2.70;;;;;;;28.68;54.95;153256.38;5054573;28;20648;-65
2022/09/14 09:18:53;;;;;;;2.35;2.25;;;;;;;28.81;52.84;153291.00;5055105;28;20630;-65
2022/09/14 09:21:23;;;;;;;9.07;2.80;;;;;;;29.14;52.69;153374.25;5055214;28;20190;-65
2022/09/14 09:23:50;;;;;;;2.88;2.78;;;;;;;29.35;51.57;153428.09;5054372;28;20189;-66
2022/09/14 09:26:27;;;;;;;6.65;2.63;;;;;;;29.53;49.49;153471.63;5086116;28;20192;-65
2022/09/14 09:29:00;;;;;;;2.60;2.40;;;;;;;29.64;49.82;153501.09;5054754;28;20196;-66
2022/09/14 09:31:33;;;;;;;4.65;2.08;;;;;;;30.10;49.67;153616.44;5055754;28;20212;-65
2022/09/14 09:34:02;;;;;;;2.10;2.00;;;;;;;30.47;46.49;153711.34;5074564;28;20237;-65
2022/09/14 09:36:34;;;;;;;2.53;1.77;;;;;;;30.88;44.32;153815.19;5075014;28;20516;-64
2022/09/14 09:39:01;;;;;;;1.92;1.70;;;;;;;31.33;40.95;153929.34;5074820;28;20586;-64
2022/09/14 09:41:31;;;;;;;3.25;2.20;;;;;;;31.49;43.94;153969.09;5074581;28;20295;-67
2022/09/14 09:44:01;;;;;;;2.40;2.20;;;;;;;31.95;41.51;154085.91;5074301;28;20299;-66
2022/09/14 09:46:30;;;;;;;1.60;1.50;;;;;;;32.55;38.07;154238.63;5074813;28;20268;-66
2022/09/14 09:48:59;;;;;;;2.15;1.45;;;;;;;31.94;38.59;154084.63;5060013;28;20200;-65
2022/09/14 09:51:29;;;;;;;1.48;1.48;;;;;;;32.38;37.80;154196.28;5053556;28;20212;-60
2022/09/14 09:54:01;;;;;;;2.47;1.70;;;;;;;31.46;38.60;153961.41;5053492;28;20192;-60
2022/09/14 09:56:31;;;;;;;2.72;1.90;;;;;;;31.77;38.90;154041.00;5053826;28;20255;-60
2022/09/14 09:58:58;;;;;;;4.57;1.73;;;;;;;32.24;38.45;154159.09;5054182;28;20545;-60
2022/09/14 10:01:30;;;;;;;1.63;1.52;;;;;;;32.10;37.91;154124.44;5055789;28;20208;-60
2022/09/14 10:04:04;;;;;;;1.83;1.27;;;;;;;32.07;38.00;154116.69;5062193;28;20205;-61
2022/09/14 10:06:32;;;;;;;8.35;1.98;;;;;;;32.22;38.21;154153.94;5051812;28;20194;-60
2022/09/14 10:08:59;;;;;;;5.95;2.72;;;;;;;32.38;37.95;154195.03;5053375;28;20216;-60
2022/09/14 10:11:35;;;;;;;1.40;1.30;;;;;;;31.89;37.26;154071.78;5052980;28;20217;-60
2022/09/14 10:14:03;;;;;;;2.88;1.17;;;;;;;31.84;37.16;154058.94;5053381;28;20216;-60
2022/09/14 10:16:36;;;;;;;4.03;2.08;;;;;;;32.69;35.60;154274.63;5053835;28;20213;-62
2022/09/14 10:19:12;;;;;;;1.52;1.42;;;;;;;32.40;35.77;154200.16;5056273;28;20220;-60
2022/09/14 10:22:07;;;;;;;1.92;1.83;;;;;;;32.21;36.11;154152.66;5055680;28;20271;-61
2022/09/14 10:24:36;;;;;;;2.13;1.65;;;;;;;32.56;34.57;154242.50;5052480;28;20225;-60
2022/09/14 10:27:38;;;;;;;6.18;1.58;;;;;;;33.57;33.94;154498.03;5053233;28;20212;-59
2022/09/14 10:30:11;;;;;;;3.50;1.20;;;;;;;33.98;32.52;154602.16;5053804;28;20189;-60
2022/09/14 10:32:41;;;;;;;3.42;1.45;;;;;;;34.45;31.45;154720.38;5055317;28;20205;-60
2022/09/14 10:35:16;;;;;;;1.05;1.05;;;;;;;34.69;32.43;154783.38;5054283;28;20216;-60
2022/09/14 10:38:04;;;;;;;2.50;1.30;;;;;;;34.68;31.15;154780.78;5059669;28;20683;-60
2022/09/14 10:40:37;;;;;;;1.20;1.00;;;;;;;34.07;31.11;154625.28;5075555;28;20227;-63
2022/09/14 10:43:13;;;;;;;1.42;1.33;;;;;;;33.96;31.68;154596.97;5076873;28;20176;-59
2022/09/14 10:45:43;;;;;;;1.52;1.45;;;;;;;33.78;33.74;154552.03;5070782;28;20220;-62
2022/09/14 10:48:42;;;;;;;2.45;1.48;;;;;;;33.29;32.63;154426.16;5064701;28;20270;-59
2022/09/14 10:51:25;;;;;;;1.30;1.20;;;;;;;34.15;31.50;154644.53;5073968;28;20208;-60
2022/09/14 10:54:08;;;;;;;1.20;1.10;;;;;;;35.47;28.36;154980.06;5074350;28;20276;-60
2022/09/14 10:56:47;;;;;;;5.45;1.50;;;;;;;34.81;29.97;154814.19;5072791;28;20242;-59
2022/09/14 10:59:24;;;;;;;3.00;1.20;;;;;;;34.61;30.43;154762.75;5073914;28;20203;-59
2022/09/14 11:02:18;;;;;;;3.13;1.20;;;;;;;33.23;31.21;154410.78;5073837;28;20604;-60
2022/09/14 11:05:07;;;;;;;2.08;1.20;;;;;;;31.71;33.12;154025.59;5070801;28;20589;-60
2022/09/14 11:07:42;;;;;;;2.55;1.80;;;;;;;30.19;35.56;153639.53;5072401;28;20184;-60
2022/09/14 11:10:21;;;;;;;1.58;1.45;;;;;;;30.54;35.71;153728.03;5072367;28;20273;-60
2022/09/14 11:13:12;;;;;;;1.92;1.35;;;;;;;29.91;36.26;153569.06;5071879;28;20195;-60
2022/09/14 11:15:46;;;;;;;1.30;1.20;;;;;;;29.45;37.69;153453.69;5071797;28;20216;-59
2022/09/14 11:18:24;;;;;;;1.08;1.08;;;;;;;29.32;39.67;153420.38;5071802;28;20310;-60
2022/09/14 11:21:04;;;;;;;1.00;1.00;;;;;;;29.23;38.57;153397.28;5073026;28;20244;-59
2022/09/14 11:23:44;;;;;;;2.03;1.48;;;;;;;29.30;39.45;153413.97;5072460;28;20192;-60
2022/09/14 11:26:25;;;;;;;1.88;1.02;;;;;;;29.39;37.46;153438.31;5071587;28;20620;-60
2022/09/14 11:28:54;;;;;;;1.85;1.05;;;;;;;29.25;37.78;153402.41;5071843;28;20200;-59
2022/09/14 11:31:25;;;;;;;1.13;0.85;;;;;;;29.24;39.54;153399.81;5072053;28;20192;-60
2022/09/14 11:33:58;;;;;;;1.77;1.00;;;;;;;29.36;39.31;153429.38;5071995;28;20261;-60
2022/09/14 11:36:30;;;;;;;2.72;1.17;;;;;;;29.24;39.24;153399.81;5071837;28;20181;-60
2022/09/14 11:39:06;;;;;;;1.27;1.27;;;;;;;29.32;40.26;153419.13;5072664;28;20573;-59